createdAt,value
2023-03-22T00:01:52.038Z,97482.59
2023-03-22T00:04:18.891Z,97478.81
2023-03-22T00:06:45.777Z,97485.56
2023-03-22T00:09:12.699Z,97481.00
2023-03-22T00:11:39.590Z,97486.38
2023-03-22T00:14:06.471Z,97487.44
2023-03-22T00:16:33.350Z,97488.53
2023-03-22T00:19:01.576Z,97476.13
2023-03-22T00:21:28.436Z,97480.69
2023-03-22T00:23:55.235Z,97474.50
2023-03-22T00:26:22.056Z,97477.44
2023-03-22T00:28:49.527Z,97467.72
2023-03-22T00:31:16.360Z,97467.72
2023-03-22T00:33:43.181Z,97466.09
2023-03-22T00:36:12.219Z,97462.88
2023-03-22T00:38:43.682Z,97460.47
2023-03-22T00:41:12.097Z,97463.16
2023-03-22T00:43:38.968Z,97471.25
2023-03-22T00:46:06.256Z,97468.03
2023-03-22T00:48:33.109Z,97470.19
2023-03-22T00:51:00.042Z,97466.44
2023-03-22T00:53:28.332Z,97463.72
2023-03-22T00:55:55.586Z,97469.69
2023-03-22T00:58:22.388Z,97464.59
2023-03-22T01:00:49.337Z,97467.28
2023-03-22T01:03:16.265Z,97464.28
2023-03-22T01:05:44.973Z,97455.94
2023-03-22T01:08:11.888Z,97456.44
2023-03-22T01:10:41.087Z,97458.34
2023-03-22T01:13:08.448Z,97464.81
2023-03-22T01:15:35.304Z,97460.78
2023-03-22T01:18:02.811Z,97464.78
2023-03-22T01:20:29.786Z,97450.53
2023-03-22T01:22:56.622Z,97452.13
2023-03-22T01:25:23.475Z,97449.16
2023-03-22T01:27:51.652Z,97455.59
2023-03-22T01:30:18.553Z,97448.38
2023-03-22T01:32:45.484Z,97442.19
2023-03-22T01:35:12.594Z,97445.97
2023-03-22T01:37:39.411Z,97444.63
2023-03-22T01:40:07.071Z,97435.47
2023-03-22T01:42:34.510Z,97433.84
2023-03-22T01:45:20.142Z,97430.91
2023-03-22T01:47:50.764Z,97429.84
2023-03-22T01:50:17.827Z,97420.16
2023-03-22T01:52:44.817Z,97424.75
2023-03-22T01:55:11.854Z,97419.88
2023-03-22T01:57:40.742Z,97433.59
2023-03-22T02:03:24.961Z,97434.41
2023-03-22T02:05:52.362Z,97440.03
2023-03-22T02:08:19.822Z,97438.91
2023-03-22T02:10:46.714Z,97432.97
2023-03-22T02:13:19.794Z,97435.16
2023-03-22T02:15:48.851Z,97427.91
2023-03-22T02:18:22.113Z,97435.19
2023-03-22T02:21:06.575Z,97424.13
2023-03-22T02:24:01.438Z,97411.25
2023-03-22T02:26:41.212Z,97422.31
2023-03-22T02:29:12.928Z,97413.19
2023-03-22T02:31:47.423Z,97408.06
2023-03-22T02:34:28.976Z,97409.69
2023-03-22T02:37:06.656Z,97402.97
2023-03-22T02:39:40.502Z,97396.50
2023-03-22T02:42:14.513Z,97388.94
2023-03-22T02:44:42.606Z,97389.75
2023-03-22T02:47:18.029Z,97394.34
2023-03-22T02:49:47.106Z,97394.59
2023-03-22T02:52:16.791Z,97392.66
2023-03-22T02:54:48.834Z,97391.59
2023-03-22T02:57:16.951Z,97396.41
2023-03-22T02:59:45.455Z,97398.28
2023-03-22T03:02:14.297Z,97406.66
2023-03-22T03:04:43.529Z,97406.91
2023-03-22T03:07:12.401Z,97408.28
2023-03-22T03:09:40.660Z,97412.06
2023-03-22T03:12:14.087Z,97405.88
2023-03-22T03:14:40.894Z,97409.38
2023-03-22T03:17:13.005Z,97406.16
2023-03-22T03:19:45.158Z,97408.88
2023-03-22T03:22:24.374Z,97404.00
2023-03-22T03:24:54.640Z,97407.00
2023-03-22T03:27:25.267Z,97400.00
2023-03-22T03:29:55.170Z,97397.59
2023-03-22T03:32:26.641Z,97394.34
2023-03-22T03:34:55.682Z,97402.41
2023-03-22T03:37:24.706Z,97404.59
2023-03-22T03:39:54.086Z,97420.16
2023-03-22T03:42:22.589Z,97408.84
2023-03-22T03:44:50.916Z,97397.22
2023-03-22T03:47:18.287Z,97402.34
2023-03-22T03:49:45.110Z,97405.03
2023-03-22T03:52:11.918Z,97414.19
2023-03-22T03:54:38.740Z,97413.91
2023-03-22T03:57:05.594Z,97412.56
2023-03-22T03:59:32.397Z,97415.53
2023-03-22T04:02:00.607Z,97408.28
2023-03-22T04:04:28.160Z,97416.91
2023-03-22T04:06:55.849Z,97409.69
2023-03-22T04:09:23.054Z,97409.13
2023-03-22T04:11:50.232Z,97410.25
2023-03-22T04:14:17.021Z,97411.28
2023-03-22T04:16:43.886Z,97412.16
2023-03-22T04:19:12.101Z,97407.00
2023-03-22T04:21:38.966Z,97407.28
2023-03-22T04:24:05.934Z,97406.47
2023-03-22T04:26:32.786Z,97414.56
2023-03-22T04:28:59.593Z,97415.09
2023-03-22T04:31:26.568Z,97407.22
2023-03-22T04:33:53.448Z,97399.97
2023-03-22T04:36:21.865Z,97399.91
2023-03-22T04:38:49.038Z,97401.81
2023-03-22T04:41:16.028Z,97406.91
2023-03-22T04:43:42.984Z,97405.84
2023-03-22T04:46:09.831Z,97399.38
2023-03-22T04:48:37.079Z,97397.53
2023-03-22T04:51:04.340Z,97392.88
2023-03-22T04:53:32.565Z,97397.56
2023-03-22T04:55:59.401Z,97407.84
2023-03-22T04:58:26.833Z,97409.03
2023-03-22T05:00:53.805Z,97405.03
2023-03-22T05:03:20.868Z,97407.91
2023-03-22T05:05:50.941Z,97400.97
2023-03-22T05:08:17.808Z,97402.09
2023-03-22T05:10:46.006Z,97400.47
2023-03-22T05:13:12.834Z,97400.19
2023-03-22T05:15:39.768Z,97400.63
2023-03-22T05:18:06.697Z,97402.03
2023-03-22T05:20:33.524Z,97406.56
2023-03-22T05:23:00.347Z,97401.94
2023-03-22T05:25:27.172Z,97409.59
2023-03-22T05:27:55.345Z,97410.06
2023-03-22T05:30:22.152Z,97410.28
2023-03-22T05:32:49.035Z,97406.25
2023-03-22T05:35:15.959Z,97414.66
2023-03-22T05:37:42.848Z,97409.53
2023-03-22T05:40:09.894Z,97412.28
2023-03-22T05:42:36.704Z,97409.06
2023-03-22T05:45:05.360Z,97408.28
2023-03-22T05:47:32.176Z,97416.38
2023-03-22T05:49:58.965Z,97416.88
2023-03-22T05:52:25.770Z,97421.09
2023-03-22T05:54:52.624Z,97416.44
2023-03-22T05:57:19.458Z,97418.38
2023-03-22T05:59:46.270Z,97421.28
2023-03-22T06:02:16.723Z,97421.44
2023-03-22T06:04:43.720Z,97422.34
2023-03-22T06:07:10.517Z,97422.50
2023-03-22T06:09:37.391Z,97419.84
2023-03-22T06:12:04.776Z,97417.28
2023-03-22T06:14:31.584Z,97421.09
2023-03-22T06:16:58.464Z,97418.97
2023-03-22T06:19:26.630Z,97427.19
2023-03-22T06:21:54.122Z,97431.47
2023-03-22T06:24:21.042Z,97439.78
2023-03-22T06:26:47.841Z,97438.41
2023-03-22T06:29:14.642Z,97436.56
2023-03-22T06:31:41.577Z,97434.41
2023-03-22T06:34:08.380Z,97426.31
2023-03-22T06:36:36.554Z,97432.75
2023-03-22T06:39:03.555Z,97418.19
2023-03-22T06:41:30.479Z,97423.84
2023-03-22T06:43:57.300Z,97427.06
2023-03-22T06:46:24.243Z,97427.88
2023-03-22T06:48:51.108Z,97432.69
2023-03-22T06:51:17.927Z,97428.94
2023-03-22T06:53:46.127Z,97432.16
2023-03-22T06:56:12.979Z,97428.34
2023-03-22T06:58:39.770Z,97426.22
2023-03-22T07:01:06.692Z,97421.63
2023-03-22T07:03:33.498Z,97423.50
2023-03-22T07:06:00.833Z,97422.41
2023-03-22T07:08:27.656Z,97431.03
2023-03-22T07:10:55.800Z,97421.91
2023-03-22T07:13:22.625Z,97434.59
2023-03-22T07:15:49.570Z,97430.56
2023-03-22T07:18:16.402Z,97431.13
2023-03-22T07:20:43.200Z,97437.03
2023-03-22T07:23:10.076Z,97435.97
2023-03-22T07:25:36.927Z,97428.44
2023-03-22T07:28:05.083Z,97431.91
2023-03-22T07:30:31.965Z,97427.38
2023-03-22T07:32:58.765Z,97433.88
2023-03-22T07:35:26.953Z,97438.16
2023-03-22T07:37:53.905Z,97428.19
2023-03-22T07:40:20.794Z,97440.28
2023-03-22T07:42:47.988Z,97433.81
2023-03-22T07:45:16.323Z,97439.97
2023-03-22T07:47:43.324Z,97441.28
2023-03-22T07:50:10.821Z,97438.03
2023-03-22T07:52:37.666Z,97438.31
2023-03-22T07:55:04.806Z,97435.91
2023-03-22T07:57:31.868Z,97435.69
2023-03-22T07:59:58.827Z,97429.53
2023-03-22T08:02:27.098Z,97440.81
2023-03-22T08:04:56.210Z,97437.06
2023-03-22T08:07:23.672Z,97432.75
2023-03-22T08:09:50.599Z,97431.09
2023-03-22T08:12:17.578Z,97432.69
2023-03-22T08:14:44.579Z,97436.75
2023-03-22T08:17:11.410Z,97433.97
2023-03-22T08:19:39.761Z,97432.34
2023-03-22T08:22:06.741Z,97434.31
2023-03-22T08:24:33.840Z,97428.16
2023-03-22T08:27:00.652Z,97430.06
2023-03-22T08:29:27.606Z,97431.69
2023-03-22T08:31:54.473Z,97426.84
2023-03-22T08:34:21.369Z,97434.59
2023-03-22T08:36:49.694Z,97431.59
2023-03-22T08:39:16.504Z,97436.16
2023-03-22T08:41:43.326Z,97438.56
2023-03-22T08:44:10.993Z,97441.78
2023-03-22T08:46:37.824Z,97433.16
2023-03-22T08:49:04.655Z,97434.44
2023-03-22T08:51:31.493Z,97427.41
2023-03-22T08:54:01.657Z,97431.75
2023-03-22T08:56:28.472Z,97429.06
2023-03-22T08:58:55.307Z,97423.63
2023-03-22T09:01:22.250Z,97424.63
2023-03-22T09:03:49.096Z,97416.19
2023-03-22T09:06:15.931Z,97418.09
2023-03-22T09:08:42.856Z,97419.19
2023-03-22T09:11:11.501Z,97415.53
2023-03-22T09:13:38.805Z,97416.13
2023-03-22T09:16:06.570Z,97408.84
2023-03-22T09:18:33.410Z,97409.13
2023-03-22T09:21:00.233Z,97407.47
2023-03-22T09:23:27.083Z,97408.56
2023-03-22T09:25:53.912Z,97407.19
2023-03-22T09:28:22.192Z,97404.44
2023-03-22T09:30:49.028Z,97391.44
2023-03-22T09:33:15.838Z,97387.84
2023-03-22T09:35:43.601Z,97387.06
2023-03-22T09:38:11.098Z,97383.25
2023-03-22T09:40:43.114Z,97368.69
2023-03-22T09:43:12.133Z,97366.78
2023-03-22T09:45:43.017Z,97367.25
2023-03-22T09:48:14.009Z,97370.47
2023-03-22T09:50:44.490Z,97364.31
2023-03-22T09:53:13.077Z,97367.34
2023-03-22T09:55:43.335Z,97361.16
2023-03-22T09:58:16.516Z,97361.41
2023-03-22T10:00:47.420Z,97359.25
2023-03-22T10:03:19.287Z,97360.34
2023-03-22T10:05:49.486Z,97349.28
2023-03-22T10:08:32.010Z,97352.28
2023-03-22T10:10:59.554Z,97347.97
2023-03-22T10:13:32.017Z,97351.41
2023-03-22T10:16:02.145Z,97342.47
2023-03-22T10:18:33.011Z,97350.72
2023-03-22T10:21:01.359Z,97345.34
2023-03-22T10:23:31.437Z,97340.66
2023-03-22T10:25:59.985Z,97340.09
2023-03-22T10:28:28.901Z,97348.50
2023-03-22T10:30:58.061Z,97344.44
2023-03-22T10:33:35.299Z,97346.59
2023-03-22T10:36:03.995Z,97348.19
2023-03-22T10:38:31.522Z,97344.66
2023-03-22T10:40:59.264Z,97340.09
2023-03-22T10:43:30.266Z,97338.00
2023-03-22T10:45:58.510Z,97337.13
2023-03-22T10:48:27.537Z,97335.78
2023-03-22T10:50:56.873Z,97328.75
2023-03-22T10:53:28.260Z,97327.69
2023-03-22T10:55:55.609Z,97327.97
2023-03-22T10:58:22.995Z,97327.69
2023-03-22T11:00:51.070Z,97328.47
2023-03-22T11:03:25.669Z,97327.84
2023-03-22T11:05:59.329Z,97322.13
2023-03-22T11:08:26.319Z,97318.34
2023-03-22T11:10:53.402Z,97322.06
2023-03-22T11:13:20.758Z,97318.19
2023-03-22T11:15:52.298Z,97321.78
2023-03-22T11:18:19.446Z,97315.28
2023-03-22T11:20:53.977Z,97306.91
2023-03-22T11:23:22.668Z,97305.31
2023-03-22T11:25:50.838Z,97305.09
2023-03-22T11:28:18.950Z,97302.63
2023-03-22T11:30:58.984Z,97295.88
2023-03-22T11:33:25.956Z,97298.31
2023-03-22T11:35:54.265Z,97291.84
2023-03-22T11:38:26.773Z,97280.75
2023-03-22T11:40:54.834Z,97272.06
2023-03-22T11:43:22.983Z,97271.56
2023-03-22T11:45:51.784Z,97265.59
2023-03-22T11:48:21.006Z,97259.59
2023-03-22T11:50:48.030Z,97259.31
2023-03-22T11:53:16.619Z,97250.56
2023-03-22T11:55:45.350Z,97259.91
2023-03-22T11:58:23.633Z,97255.69
2023-03-22T12:00:52.049Z,97252.47
2023-03-22T12:03:21.606Z,97255.16
2023-03-22T12:05:49.883Z,97242.19
2023-03-22T12:08:19.234Z,97241.63
2023-03-22T12:10:49.251Z,97244.31
2023-03-22T12:13:19.681Z,97244.38
2023-03-22T12:15:48.901Z,97234.09
2023-03-22T12:18:17.407Z,97230.81
2023-03-22T12:20:49.081Z,97231.41
2023-03-22T12:23:17.120Z,97224.53
2023-03-22T12:25:46.380Z,97229.03
2023-03-22T12:28:15.997Z,97215.78
2023-03-22T12:30:45.264Z,97212.22
2023-03-22T12:33:16.311Z,97215.13
2023-03-22T12:35:44.792Z,97206.50
2023-03-22T12:38:23.446Z,97212.94
2023-03-22T12:40:52.423Z,97198.25
2023-03-22T12:43:24.860Z,97200.25
2023-03-22T12:45:54.853Z,97199.25
2023-03-22T12:48:33.924Z,97189.47
2023-03-22T12:51:03.058Z,97193.06
2023-03-22T12:53:33.466Z,97187.34
2023-03-22T12:56:00.814Z,97190.38
2023-03-22T12:58:29.014Z,97186.78
2023-03-22T13:00:56.845Z,97187.22
2023-03-22T13:03:25.587Z,97185.81
2023-03-22T13:05:59.712Z,97175.53
2023-03-22T13:08:46.683Z,97177.22
2023-03-22T13:11:22.109Z,97180.34
2023-03-22T13:13:50.324Z,97176.03
2023-03-22T13:16:20.183Z,97175.44
2023-03-22T13:18:57.438Z,97168.13
2023-03-22T13:21:25.416Z,97168.63
2023-03-22T13:23:53.472Z,97169.84
2023-03-22T13:26:22.395Z,97170.75
2023-03-22T13:28:58.296Z,97165.13
2023-03-22T13:31:40.654Z,97169.66
2023-03-22T13:34:18.490Z,97156.94
2023-03-22T13:36:49.418Z,97162.03
2023-03-22T13:39:16.533Z,97157.44
2023-03-22T13:41:45.766Z,97162.03
2023-03-22T13:44:25.033Z,97157.94
2023-03-22T13:46:52.505Z,97161.16
2023-03-22T13:49:42.550Z,97164.41
2023-03-22T13:52:09.755Z,97157.66
2023-03-22T13:54:40.139Z,97150.91
2023-03-22T13:57:15.464Z,97150.41
2023-03-22T14:00:08.878Z,97152.41
2023-03-22T14:02:40.276Z,97148.22
2023-03-22T14:05:08.969Z,97135.13
2023-03-22T14:07:39.679Z,97140.34
2023-03-22T14:10:12.666Z,97132.22
2023-03-22T14:12:46.183Z,97133.53
2023-03-22T14:15:15.780Z,97116.94
2023-03-22T14:17:46.769Z,97141.50
2023-03-22T14:20:17.760Z,97127.72
